sensor_id;sensor_type;location;lat;lon;timestamp;P1;durP1;ratioP1;P2;durP2;ratioP2
45392;SDS011;31129;44.810;10.334;2024-02-16T00:01:17;72.07;;;43.67;;
45392;SDS011;31129;44.810;10.334;2024-02-16T00:03:42;65.90;;;43.38;;
45392;SDS011;31129;44.810;10.334;2024-02-16T00:06:08;66.90;;;42.90;;
45392;SDS011;31129;44.810;10.334;2024-02-16T00:08:33;66.97;;;40.60;;
45392;SDS011;31129;44.810;10.334;2024-02-16T00:10:59;61.70;;;41.25;;
45392;SDS011;31129;44.810;10.334;2024-02-16T00:13:25;60.28;;;42.25;;
45392;SDS011;31129;44.810;10.334;2024-02-16T00:15:51;66.70;;;43.10;;
45392;SDS011;31129;44.810;10.334;2024-02-16T00:18:16;63.20;;;42.78;;
45392;SDS011;31129;44.810;10.334;2024-02-16T00:20:42;70.03;;;43.42;;
45392;SDS011;31129;44.810;10.334;2024-02-16T00:23:07;61.88;;;42.88;;
45392;SDS011;31129;44.810;10.334;2024-02-16T00:25:33;68.97;;;43.78;;
45392;SDS011;31129;44.810;10.334;2024-02-16T00:27:59;70.38;;;45.92;;
45392;SDS011;31129;44.810;10.334;2024-02-16T00:30:25;66.25;;;44.97;;
45392;SDS011;31129;44.810;10.334;2024-02-16T00:32:52;71.15;;;44.80;;
45392;SDS011;31129;44.810;10.334;2024-02-16T00:35:17;71.70;;;45.05;;
45392;SDS011;31129;44.810;10.334;2024-02-16T00:37:44;70.63;;;45.60;;
45392;SDS011;31129;44.810;10.334;2024-02-16T00:40:11;75.38;;;46.17;;
45392;SDS011;31129;44.810;10.334;2024-02-16T00:42:37;72.50;;;45.22;;
45392;SDS011;31129;44.810;10.334;2024-02-16T00:45:03;66.38;;;44.05;;
45392;SDS011;31129;44.810;10.334;2024-02-16T00:47:29;68.15;;;44.63;;
45392;SDS011;31129;44.810;10.334;2024-02-16T00:49:54;69.40;;;43.45;;
45392;SDS011;31129;44.810;10.334;2024-02-16T00:52:20;69.10;;;43.08;;
45392;SDS011;31129;44.810;10.334;2024-02-16T00:54:47;69.05;;;46.40;;
45392;SDS011;31129;44.810;10.334;2024-02-16T00:57:13;69.80;;;45.78;;
45392;SDS011;31129;44.810;10.334;2024-02-16T00:59:42;66.63;;;45.10;;
45392;SDS011;31129;44.810;10.334;2024-02-16T01:02:07;70.10;;;44.78;;
45392;SDS011;31129;44.810;10.334;2024-02-16T01:04:35;70.60;;;44.67;;
45392;SDS011;31129;44.810;10.334;2024-02-16T01:07:01;71.93;;;44.15;;
45392;SDS011;31129;44.810;10.334;2024-02-16T01:09:26;63.42;;;42.75;;
45392;SDS011;31129;44.810;10.334;2024-02-16T01:11:52;68.85;;;43.97;;
45392;SDS011;31129;44.810;10.334;2024-02-16T01:14:17;68.43;;;42.95;;
45392;SDS011;31129;44.810;10.334;2024-02-16T01:16:43;65.97;;;44.10;;
45392;SDS011;31129;44.810;10.334;2024-02-16T01:19:09;69.25;;;43.80;;
45392;SDS011;31129;44.810;10.334;2024-02-16T01:21:35;64.32;;;41.47;;
45392;SDS011;31129;44.810;10.334;2024-02-16T01:24:00;64.50;;;40.28;;
45392;SDS011;31129;44.810;10.334;2024-02-16T01:26:26;68.63;;;41.38;;
45392;SDS011;31129;44.810;10.334;2024-02-16T01:28:53;66.90;;;39.42;;
45392;SDS011;31129;44.810;10.334;2024-02-16T01:31:18;55.83;;;38.20;;
45392;SDS011;31129;44.810;10.334;2024-02-16T01:33:44;59.63;;;37.58;;
45392;SDS011;31129;44.810;10.334;2024-02-16T01:36:09;55.97;;;37.75;;
45392;SDS011;31129;44.810;10.334;2024-02-16T01:38:35;54.75;;;35.15;;
45392;SDS011;31129;44.810;10.334;2024-02-16T01:41:01;52.63;;;35.63;;
45392;SDS011;31129;44.810;10.334;2024-02-16T01:43:27;55.28;;;34.85;;
45392;SDS011;31129;44.810;10.334;2024-02-16T01:45:52;49.17;;;32.72;;
45392;SDS011;31129;44.810;10.334;2024-02-16T01:48:19;56.05;;;34.47;;
45392;SDS011;31129;44.810;10.334;2024-02-16T01:50:44;51.38;;;33.83;;
45392;SDS011;31129;44.810;10.334;2024-02-16T01:53:11;48.08;;;34.40;;
45392;SDS011;31129;44.810;10.334;2024-02-16T01:55:38;51.70;;;33.35;;
45392;SDS011;31129;44.810;10.334;2024-02-16T01:58:04;53.25;;;34.92;;
45392;SDS011;31129;44.810;10.334;2024-02-16T02:00:29;50.95;;;33.00;;
45392;SDS011;31129;44.810;10.334;2024-02-16T02:02:55;52.47;;;34.10;;
45392;SDS011;31129;44.810;10.334;2024-02-16T02:05:22;53.03;;;34.25;;
45392;SDS011;31129;44.810;10.334;2024-02-16T02:07:48;50.75;;;32.65;;
45392;SDS011;31129;44.810;10.334;2024-02-16T02:10:14;52.22;;;32.38;;
45392;SDS011;31129;44.810;10.334;2024-02-16T02:12:40;52.38;;;32.65;;
45392;SDS011;31129;44.810;10.334;2024-02-16T02:15:07;44.45;;;30.42;;
45392;SDS011;31129;44.810;10.334;2024-02-16T02:17:34;48.35;;;31.25;;
45392;SDS011;31129;44.810;10.334;2024-02-16T02:20:00;52.78;;;32.22;;
45392;SDS011;31129;44.810;10.334;2024-02-16T02:22:26;47.75;;;31.80;;
45392;SDS011;31129;44.810;10.334;2024-02-16T02:24:52;50.30;;;29.85;;
45392;SDS011;31129;44.810;10.334;2024-02-16T02:27:19;50.35;;;31.15;;
45392;SDS011;31129;44.810;10.334;2024-02-16T02:29:44;49.88;;;28.77;;
45392;SDS011;31129;44.810;10.334;2024-02-16T02:32:10;47.75;;;29.67;;
45392;SDS011;31129;44.810;10.334;2024-02-16T02:34:36;49.15;;;30.38;;
45392;SDS011;31129;44.810;10.334;2024-02-16T02:37:01;47.75;;;29.75;;
45392;SDS011;31129;44.810;10.334;2024-02-16T02:39:29;47.37;;;30.00;;
45392;SDS011;31129;44.810;10.334;2024-02-16T02:41:54;43.28;;;28.05;;
45392;SDS011;31129;44.810;10.334;2024-02-16T02:44:20;49.35;;;29.08;;
45392;SDS011;31129;44.810;10.334;2024-02-16T02:46:45;49.40;;;29.58;;
45392;SDS011;31129;44.810;10.334;2024-02-16T02:49:11;46.20;;;29.27;;
45392;SDS011;31129;44.810;10.334;2024-02-16T02:51:36;44.75;;;30.05;;
45392;SDS011;31129;44.810;10.334;2024-02-16T02:54:02;48.75;;;31.23;;
45392;SDS011;31129;44.810;10.334;2024-02-16T02:56:28;54.30;;;32.08;;
45392;SDS011;31129;44.810;10.334;2024-02-16T02:58:53;54.03;;;33.75;;
45392;SDS011;31129;44.810;10.334;2024-02-16T03:01:18;46.30;;;31.33;;
45392;SDS011;31129;44.810;10.334;2024-02-16T03:06:12;49.10;;;32.05;;
45392;SDS011;31129;44.810;10.334;2024-02-16T03:08:38;55.08;;;33.78;;
45392;SDS011;31129;44.810;10.334;2024-02-16T03:11:04;48.47;;;32.67;;
45392;SDS011;31129;44.810;10.334;2024-02-16T03:13:31;50.15;;;32.83;;
45392;SDS011;31129;44.810;10.334;2024-02-16T03:15:57;48.97;;;32.00;;
45392;SDS011;31129;44.810;10.334;2024-02-16T03:18:22;52.78;;;31.90;;
45392;SDS011;31129;44.810;10.334;2024-02-16T03:20:48;50.33;;;32.00;;
45392;SDS011;31129;44.810;10.334;2024-02-16T03:23:15;47.28;;;29.83;;
45392;SDS011;31129;44.810;10.334;2024-02-16T03:25:41;45.38;;;28.90;;
45392;SDS011;31129;44.810;10.334;2024-02-16T03:28:11;53.28;;;30.38;;
45392;SDS011;31129;44.810;10.334;2024-02-16T03:30:37;42.28;;;28.75;;
45392;SDS011;31129;44.810;10.334;2024-02-16T03:33:03;47.30;;;30.17;;
45392;SDS011;31129;44.810;10.334;2024-02-16T03:35:29;50.15;;;28.85;;
45392;SDS011;31129;44.810;10.334;2024-02-16T03:37:55;50.97;;;30.63;;
45392;SDS011;31129;44.810;10.334;2024-02-16T03:40:22;59.88;;;35.90;;
45392;SDS011;31129;44.810;10.334;2024-02-16T03:42:47;51.85;;;33.55;;
45392;SDS011;31129;44.810;10.334;2024-02-16T03:45:13;57.50;;;36.72;;
45392;SDS011;31129;44.810;10.334;2024-02-16T03:47:42;56.97;;;36.90;;
45392;SDS011;31129;44.810;10.334;2024-02-16T03:50:07;62.42;;;38.63;;
45392;SDS011;31129;44.810;10.334;2024-02-16T03:52:33;59.90;;;38.35;;
45392;SDS011;31129;44.810;10.334;2024-02-16T03:54:59;70.82;;;41.60;;
45392;SDS011;31129;44.810;10.334;2024-02-16T03:57:25;66.60;;;41.33;;
45392;SDS011;31129;44.810;10.334;2024-02-16T03:59:51;65.35;;;42.53;;
45392;SDS011;31129;44.810;10.334;2024-02-16T04:02:28;67.70;;;40.83;;
45392;SDS011;31129;44.810;10.334;2024-02-16T04:04:53;69.13;;;43.80;;
45392;SDS011;31129;44.810;10.334;2024-02-16T04:07:28;76.32;;;45.65;;
45392;SDS011;31129;44.810;10.334;2024-02-16T04:09:53;67.93;;;43.75;;
45392;SDS011;31129;44.810;10.334;2024-02-16T04:12:19;69.97;;;43.45;;
45392;SDS011;31129;44.810;10.334;2024-02-16T04:14:45;67.45;;;44.47;;
45392;SDS011;31129;44.810;10.334;2024-02-16T04:17:10;77.93;;;45.47;;
45392;SDS011;31129;44.810;10.334;2024-02-16T04:19:36;76.88;;;47.15;;
45392;SDS011;31129;44.810;10.334;2024-02-16T04:22:02;75.65;;;48.42;;
45392;SDS011;31129;44.810;10.334;2024-02-16T04:24:28;78.72;;;49.92;;
45392;SDS011;31129;44.810;10.334;2024-02-16T04:26:54;81.03;;;51.28;;
45392;SDS011;31129;44.810;10.334;2024-02-16T04:29:19;78.80;;;48.58;;
45392;SDS011;31129;44.810;10.334;2024-02-16T04:31:45;73.80;;;49.13;;
45392;SDS011;31129;44.810;10.334;2024-02-16T04:34:11;76.72;;;48.72;;
45392;SDS011;31129;44.810;10.334;2024-02-16T04:36:37;69.20;;;47.92;;
45392;SDS011;31129;44.810;10.334;2024-02-16T04:39:03;79.65;;;47.53;;
45392;SDS011;31129;44.810;10.334;2024-02-16T04:41:28;70.97;;;48.08;;
45392;SDS011;31129;44.810;10.334;2024-02-16T04:43:54;78.65;;;50.42;;
45392;SDS011;31129;44.810;10.334;2024-02-16T04:46:20;78.40;;;48.90;;
45392;SDS011;31129;44.810;10.334;2024-02-16T04:48:46;78.10;;;50.13;;
45392;SDS011;31129;44.810;10.334;2024-02-16T04:51:12;74.45;;;48.97;;
45392;SDS011;31129;44.810;10.334;2024-02-16T04:53:37;80.95;;;52.50;;
45392;SDS011;31129;44.810;10.334;2024-02-16T04:56:03;78.20;;;49.50;;
45392;SDS011;31129;44.810;10.334;2024-02-16T04:58:30;83.57;;;51.13;;
45392;SDS011;31129;44.810;10.334;2024-02-16T05:00:56;83.03;;;52.13;;
45392;SDS011;31129;44.810;10.334;2024-02-16T05:03:22;80.13;;;50.92;;
45392;SDS011;31129;44.810;10.334;2024-02-16T05:05:47;81.43;;;50.28;;
45392;SDS011;31129;44.810;10.334;2024-02-16T05:08:13;89.53;;;54.20;;
45392;SDS011;31129;44.810;10.334;2024-02-16T05:10:39;90.35;;;55.35;;
45392;SDS011;31129;44.810;10.334;2024-02-16T05:13:05;85.28;;;56.40;;
45392;SDS011;31129;44.810;10.334;2024-02-16T05:15:31;92.78;;;57.72;;
45392;SDS011;31129;44.810;10.334;2024-02-16T05:17:57;87.00;;;56.83;;
45392;SDS011;31129;44.810;10.334;2024-02-16T05:20:22;91.18;;;56.90;;
45392;SDS011;31129;44.810;10.334;2024-02-16T05:22:48;90.55;;;59.03;;
45392;SDS011;31129;44.810;10.334;2024-02-16T05:25:14;94.97;;;59.25;;
45392;SDS011;31129;44.810;10.334;2024-02-16T05:27:43;93.78;;;56.58;;
45392;SDS011;31129;44.810;10.334;2024-02-16T05:30:09;89.78;;;57.38;;
45392;SDS011;31129;44.810;10.334;2024-02-16T05:32:38;88.10;;;55.40;;
45392;SDS011;31129;44.810;10.334;2024-02-16T05:35:04;84.13;;;54.78;;
45392;SDS011;31129;44.810;10.334;2024-02-16T05:37:37;90.75;;;55.38;;
45392;SDS011;31129;44.810;10.334;2024-02-16T05:40:06;91.97;;;54.60;;
45392;SDS011;31129;44.810;10.334;2024-02-16T05:42:44;90.65;;;53.88;;
45392;SDS011;31129;44.810;10.334;2024-02-16T05:45:11;80.97;;;52.00;;
45392;SDS011;31129;44.810;10.334;2024-02-16T05:47:36;77.57;;;51.40;;
45392;SDS011;31129;44.810;10.334;2024-02-16T05:50:04;79.43;;;49.42;;
45392;SDS011;31129;44.810;10.334;2024-02-16T05:52:30;79.50;;;49.70;;
45392;SDS011;31129;44.810;10.334;2024-02-16T05:54:56;76.47;;;47.78;;
45392;SDS011;31129;44.810;10.334;2024-02-16T05:57:21;75.60;;;47.67;;
45392;SDS011;31129;44.810;10.334;2024-02-16T05:59:48;74.43;;;46.40;;
45392;SDS011;31129;44.810;10.334;2024-02-16T06:02:14;75.63;;;45.70;;
45392;SDS011;31129;44.810;10.334;2024-02-16T06:04:40;77.53;;;46.72;;
45392;SDS011;31129;44.810;10.334;2024-02-16T06:07:07;74.18;;;46.65;;
45392;SDS011;31129;44.810;10.334;2024-02-16T06:09:33;75.53;;;46.38;;
45392;SDS011;31129;44.810;10.334;2024-02-16T06:12:06;75.40;;;44.58;;
45392;SDS011;31129;44.810;10.334;2024-02-16T06:14:32;74.07;;;44.08;;
45392;SDS011;31129;44.810;10.334;2024-02-16T06:16:59;65.80;;;43.45;;
45392;SDS011;31129;44.810;10.334;2024-02-16T06:19:25;67.13;;;43.95;;
45392;SDS011;31129;44.810;10.334;2024-02-16T06:21:51;69.00;;;44.83;;
45392;SDS011;31129;44.810;10.334;2024-02-16T06:24:17;69.60;;;43.20;;
45392;SDS011;31129;44.810;10.334;2024-02-16T06:26:44;71.78;;;41.47;;
45392;SDS011;31129;44.810;10.334;2024-02-16T06:29:09;55.95;;;36.53;;
45392;SDS011;31129;44.810;10.334;2024-02-16T06:31:35;57.40;;;37.80;;
45392;SDS011;31129;44.810;10.334;2024-02-16T06:34:00;62.78;;;36.88;;
45392;SDS011;31129;44.810;10.334;2024-02-16T06:36:26;53.42;;;34.15;;
45392;SDS011;31129;44.810;10.334;2024-02-16T06:38:51;59.38;;;34.25;;
45392;SDS011;31129;44.810;10.334;2024-02-16T06:41:17;62.17;;;32.75;;
45392;SDS011;31129;44.810;10.334;2024-02-16T06:43:42;51.70;;;32.38;;
45392;SDS011;31129;44.810;10.334;2024-02-16T06:46:08;47.00;;;30.83;;
45392;SDS011;31129;44.810;10.334;2024-02-16T06:48:33;49.42;;;30.33;;
45392;SDS011;31129;44.810;10.334;2024-02-16T06:50:59;47.55;;;29.30;;
45392;SDS011;31129;44.810;10.334;2024-02-16T06:53:24;46.03;;;28.63;;
45392;SDS011;31129;44.810;10.334;2024-02-16T06:55:50;46.17;;;29.02;;
45392;SDS011;31129;44.810;10.334;2024-02-16T06:58:16;41.20;;;27.17;;
45392;SDS011;31129;44.810;10.334;2024-02-16T07:00:42;45.33;;;28.10;;
45392;SDS011;31129;44.810;10.334;2024-02-16T07:03:07;47.35;;;28.92;;
45392;SDS011;31129;44.810;10.334;2024-02-16T07:05:34;44.22;;;27.02;;
45392;SDS011;31129;44.810;10.334;2024-02-16T07:08:00;54.17;;;28.67;;
45392;SDS011;31129;44.810;10.334;2024-02-16T07:10:25;48.72;;;28.92;;
45392;SDS011;31129;44.810;10.334;2024-02-16T07:12:51;48.38;;;27.23;;
45392;SDS011;31129;44.810;10.334;2024-02-16T07:15:16;50.05;;;27.50;;
45392;SDS011;31129;44.810;10.334;2024-02-16T07:17:42;50.17;;;28.30;;
45392;SDS011;31129;44.810;10.334;2024-02-16T07:20:08;40.90;;;26.77;;
45392;SDS011;31129;44.810;10.334;2024-02-16T07:22:33;47.22;;;25.95;;
45392;SDS011;31129;44.810;10.334;2024-02-16T07:24:59;44.17;;;25.65;;
45392;SDS011;31129;44.810;10.334;2024-02-16T07:27:25;41.47;;;24.15;;
45392;SDS011;31129;44.810;10.334;2024-02-16T07:29:51;39.65;;;24.05;;
45392;SDS011;31129;44.810;10.334;2024-02-16T07:32:17;39.05;;;22.13;;
45392;SDS011;31129;44.810;10.334;2024-02-16T07:34:46;40.92;;;22.52;;
45392;SDS011;31129;44.810;10.334;2024-02-16T07:37:13;38.33;;;21.35;;
45392;SDS011;31129;44.810;10.334;2024-02-16T07:39:39;35.10;;;22.73;;
45392;SDS011;31129;44.810;10.334;2024-02-16T07:42:06;35.55;;;21.70;;
45392;SDS011;31129;44.810;10.334;2024-02-16T07:44:34;37.22;;;21.92;;
45392;SDS011;31129;44.810;10.334;2024-02-16T07:47:01;39.00;;;22.48;;
45392;SDS011;31129;44.810;10.334;2024-02-16T07:49:27;40.88;;;21.48;;
45392;SDS011;31129;44.810;10.334;2024-02-16T07:51:52;33.30;;;21.75;;
45392;SDS011;31129;44.810;10.334;2024-02-16T07:54:18;35.75;;;23.73;;
45392;SDS011;31129;44.810;10.334;2024-02-16T07:56:44;47.13;;;25.63;;
45392;SDS011;31129;44.810;10.334;2024-02-16T07:59:09;41.08;;;27.42;;
45392;SDS011;31129;44.810;10.334;2024-02-16T08:01:35;49.65;;;30.17;;
45392;SDS011;31129;44.810;10.334;2024-02-16T08:04:00;58.60;;;35.35;;
45392;SDS011;31129;44.810;10.334;2024-02-16T08:06:26;65.05;;;42.80;;
45392;SDS011;31129;44.810;10.334;2024-02-16T08:08:53;72.32;;;47.22;;
45392;SDS011;31129;44.810;10.334;2024-02-16T08:11:19;72.47;;;45.85;;
45392;SDS011;31129;44.810;10.334;2024-02-16T08:13:45;71.40;;;45.95;;
45392;SDS011;31129;44.810;10.334;2024-02-16T08:16:10;73.05;;;46.10;;
45392;SDS011;31129;44.810;10.334;2024-02-16T08:18:36;78.45;;;50.58;;
45392;SDS011;31129;44.810;10.334;2024-02-16T08:21:01;76.68;;;48.50;;
45392;SDS011;31129;44.810;10.334;2024-02-16T08:23:27;81.55;;;50.63;;
45392;SDS011;31129;44.810;10.334;2024-02-16T08:25:53;74.10;;;49.58;;
45392;SDS011;31129;44.810;10.334;2024-02-16T08:28:18;86.18;;;52.88;;
45392;SDS011;31129;44.810;10.334;2024-02-16T08:30:43;84.35;;;51.03;;
45392;SDS011;31129;44.810;10.334;2024-02-16T08:33:09;84.13;;;52.90;;
45392;SDS011;31129;44.810;10.334;2024-02-16T08:35:35;79.00;;;50.60;;
45392;SDS011;31129;44.810;10.334;2024-02-16T08:38:01;77.20;;;51.42;;
45392;SDS011;31129;44.810;10.334;2024-02-16T08:40:26;80.70;;;51.20;;
45392;SDS011;31129;44.810;10.334;2024-02-16T08:42:52;76.55;;;50.63;;
45392;SDS011;31129;44.810;10.334;2024-02-16T08:45:17;81.95;;;53.20;;
45392;SDS011;31129;44.810;10.334;2024-02-16T08:47:43;80.90;;;53.30;;
45392;SDS011;31129;44.810;10.334;2024-02-16T08:50:09;86.47;;;54.10;;
45392;SDS011;31129;44.810;10.334;2024-02-16T08:52:36;78.30;;;53.38;;
45392;SDS011;31129;44.810;10.334;2024-02-16T08:55:02;80.43;;;52.88;;
45392;SDS011;31129;44.810;10.334;2024-02-16T08:57:27;79.60;;;52.58;;
45392;SDS011;31129;44.810;10.334;2024-02-16T08:59:53;77.50;;;49.50;;
45392;SDS011;31129;44.810;10.334;2024-02-16T09:02:18;79.50;;;51.38;;
45392;SDS011;31129;44.810;10.334;2024-02-16T09:04:45;76.97;;;50.92;;
45392;SDS011;31129;44.810;10.334;2024-02-16T09:07:10;78.68;;;51.75;;
45392;SDS011;31129;44.810;10.334;2024-02-16T09:09:36;82.97;;;52.53;;
45392;SDS011;31129;44.810;10.334;2024-02-16T09:12:02;77.85;;;49.97;;
45392;SDS011;31129;44.810;10.334;2024-02-16T09:14:27;89.85;;;54.85;;
45392;SDS011;31129;44.810;10.334;2024-02-16T09:16:53;81.28;;;52.13;;
45392;SDS011;31129;44.810;10.334;2024-02-16T09:19:18;80.68;;;53.17;;
45392;SDS011;31129;44.810;10.334;2024-02-16T09:24:13;78.43;;;51.67;;
45392;SDS011;31129;44.810;10.334;2024-02-16T09:26:43;83.00;;;53.13;;
45392;SDS011;31129;44.810;10.334;2024-02-16T09:29:12;86.20;;;55.60;;
45392;SDS011;31129;44.810;10.334;2024-02-16T09:31:39;78.20;;;53.43;;
45392;SDS011;31129;44.810;10.334;2024-02-16T09:34:06;86.03;;;56.63;;
45392;SDS011;31129;44.810;10.334;2024-02-16T09:36:31;89.50;;;59.88;;
45392;SDS011;31129;44.810;10.334;2024-02-16T09:38:57;91.78;;;55.38;;
45392;SDS011;31129;44.810;10.334;2024-02-16T09:41:23;81.63;;;54.97;;
45392;SDS011;31129;44.810;10.334;2024-02-16T09:43:48;88.30;;;59.08;;
45392;SDS011;31129;44.810;10.334;2024-02-16T09:46:14;100.85;;;64.68;;
45392;SDS011;31129;44.810;10.334;2024-02-16T09:48:40;82.07;;;56.58;;
45392;SDS011;31129;44.810;10.334;2024-02-16T09:51:07;88.15;;;57.25;;
45392;SDS011;31129;44.810;10.334;2024-02-16T09:53:33;86.10;;;58.10;;
45392;SDS011;31129;44.810;10.334;2024-02-16T09:55:58;85.20;;;57.75;;
45392;SDS011;31129;44.810;10.334;2024-02-16T09:58:24;95.00;;;61.17;;
45392;SDS011;31129;44.810;10.334;2024-02-16T10:00:53;85.55;;;56.35;;
45392;SDS011;31129;44.810;10.334;2024-02-16T10:03:37;87.30;;;57.63;;
45392;SDS011;31129;44.810;10.334;2024-02-16T10:06:06;93.05;;;58.65;;
45392;SDS011;31129;44.810;10.334;2024-02-16T10:08:34;93.40;;;62.35;;
45392;SDS011;31129;44.810;10.334;2024-02-16T10:11:03;92.97;;;63.70;;
45392;SDS011;31129;44.810;10.334;2024-02-16T10:13:30;107.25;;;70.55;;
45392;SDS011;31129;44.810;10.334;2024-02-16T10:16:06;99.35;;;69.43;;
45392;SDS011;31129;44.810;10.334;2024-02-16T10:18:34;97.35;;;65.03;;
45392;SDS011;31129;44.810;10.334;2024-02-16T10:21:03;100.72;;;66.35;;
45392;SDS011;31129;44.810;10.334;2024-02-16T10:23:28;99.35;;;67.72;;
45392;SDS011;31129;44.810;10.334;2024-02-16T10:25:54;101.90;;;68.55;;
45392;SDS011;31129;44.810;10.334;2024-02-16T10:28:20;105.45;;;69.28;;
45392;SDS011;31129;44.810;10.334;2024-02-16T10:30:52;102.35;;;69.20;;
45392;SDS011;31129;44.810;10.334;2024-02-16T10:33:26;99.82;;;69.32;;
45392;SDS011;31129;44.810;10.334;2024-02-16T10:35:53;98.60;;;70.88;;
45392;SDS011;31129;44.810;10.334;2024-02-16T10:38:22;105.00;;;70.65;;
45392;SDS011;31129;44.810;10.334;2024-02-16T10:40:48;112.90;;;74.72;;
45392;SDS011;31129;44.810;10.334;2024-02-16T10:43:16;104.70;;;71.45;;
45392;SDS011;31129;44.810;10.334;2024-02-16T10:45:43;110.80;;;74.57;;
45392;SDS011;31129;44.810;10.334;2024-02-16T10:48:10;97.22;;;69.63;;
45392;SDS011;31129;44.810;10.334;2024-02-16T10:50:36;108.65;;;71.30;;
45392;SDS011;31129;44.810;10.334;2024-02-16T10:53:10;104.53;;;70.70;;
45392;SDS011;31129;44.810;10.334;2024-02-16T10:55:41;114.90;;;74.63;;
45392;SDS011;31129;44.810;10.334;2024-02-16T10:58:07;113.10;;;78.15;;
45392;SDS011;31129;44.810;10.334;2024-02-16T11:00:33;107.32;;;74.53;;
45392;SDS011;31129;44.810;10.334;2024-02-16T11:03:01;118.18;;;77.57;;
45392;SDS011;31129;44.810;10.334;2024-02-16T11:05:39;111.80;;;76.85;;
45392;SDS011;31129;44.810;10.334;2024-02-16T11:08:13;121.03;;;79.22;;
45392;SDS011;31129;44.810;10.334;2024-02-16T11:13:27;104.38;;;77.30;;
45392;SDS011;31129;44.810;10.334;2024-02-16T11:16:00;121.32;;;81.82;;
45392;SDS011;31129;44.810;10.334;2024-02-16T11:18:28;123.40;;;82.18;;
45392;SDS011;31129;44.810;10.334;2024-02-16T11:20:54;122.72;;;81.38;;
45392;SDS011;31129;44.810;10.334;2024-02-16T11:23:24;121.47;;;83.05;;
45392;SDS011;31129;44.810;10.334;2024-02-16T11:25:53;124.65;;;83.38;;
45392;SDS011;31129;44.810;10.334;2024-02-16T11:28:19;121.63;;;83.75;;
45392;SDS011;31129;44.810;10.334;2024-02-16T11:30:44;120.40;;;82.63;;
45392;SDS011;31129;44.810;10.334;2024-02-16T11:33:10;127.43;;;82.28;;
45392;SDS011;31129;44.810;10.334;2024-02-16T11:35:36;117.07;;;80.97;;
45392;SDS011;31129;44.810;10.334;2024-02-16T11:38:01;124.53;;;84.03;;
45392;SDS011;31129;44.810;10.334;2024-02-16T11:40:27;119.90;;;80.75;;
45392;SDS011;31129;44.810;10.334;2024-02-16T11:42:59;120.93;;;82.40;;
45392;SDS011;31129;44.810;10.334;2024-02-16T11:45:25;119.03;;;83.90;;
45392;SDS011;31129;44.810;10.334;2024-02-16T11:48:02;125.40;;;82.10;;
45392;SDS011;31129;44.810;10.334;2024-02-16T11:50:28;128.23;;;81.97;;
45392;SDS011;31129;44.810;10.334;2024-02-16T11:52:54;120.63;;;82.78;;
45392;SDS011;31129;44.810;10.334;2024-02-16T11:55:20;126.07;;;82.88;;
45392;SDS011;31129;44.810;10.334;2024-02-16T11:57:46;116.75;;;81.70;;
45392;SDS011;31129;44.810;10.334;2024-02-16T12:00:15;122.07;;;81.78;;
45392;SDS011;31129;44.810;10.334;2024-02-16T12:02:41;118.25;;;81.63;;
45392;SDS011;31129;44.810;10.334;2024-02-16T12:05:07;121.80;;;82.63;;
45392;SDS011;31129;44.810;10.334;2024-02-16T12:07:33;120.97;;;80.60;;
45392;SDS011;31129;44.810;10.334;2024-02-16T12:10:02;126.50;;;82.68;;
45392;SDS011;31129;44.810;10.334;2024-02-16T12:12:32;119.93;;;81.68;;
45392;SDS011;31129;44.810;10.334;2024-02-16T12:14:58;120.78;;;81.65;;
45392;SDS011;31129;44.810;10.334;2024-02-16T12:17:24;121.50;;;80.88;;
45392;SDS011;31129;44.810;10.334;2024-02-16T12:19:50;123.53;;;82.97;;
45392;SDS011;31129;44.810;10.334;2024-02-16T12:22:17;129.50;;;83.63;;
45392;SDS011;31129;44.810;10.334;2024-02-16T12:24:47;127.15;;;84.43;;
45392;SDS011;31129;44.810;10.334;2024-02-16T12:27:13;128.43;;;84.10;;
45392;SDS011;31129;44.810;10.334;2024-02-16T12:29:39;125.50;;;84.05;;
45392;SDS011;31129;44.810;10.334;2024-02-16T12:32:05;130.65;;;84.45;;
45392;SDS011;31129;44.810;10.334;2024-02-16T12:34:32;119.63;;;80.70;;
45392;SDS011;31129;44.810;10.334;2024-02-16T12:36:58;124.47;;;81.28;;
45392;SDS011;31129;44.810;10.334;2024-02-16T12:39:24;117.50;;;80.07;;
45392;SDS011;31129;44.810;10.334;2024-02-16T12:41:49;125.00;;;82.72;;
45392;SDS011;31129;44.810;10.334;2024-02-16T12:44:15;122.43;;;82.88;;
45392;SDS011;31129;44.810;10.334;2024-02-16T12:46:40;124.35;;;82.60;;
45392;SDS011;31129;44.810;10.334;2024-02-16T12:49:08;128.57;;;84.97;;
45392;SDS011;31129;44.810;10.334;2024-02-16T12:51:33;117.72;;;80.85;;
45392;SDS011;31129;44.810;10.334;2024-02-16T12:53:59;129.52;;;86.43;;
45392;SDS011;31129;44.810;10.334;2024-02-16T12:56:25;125.15;;;83.05;;
45392;SDS011;31129;44.810;10.334;2024-02-16T12:58:51;118.75;;;80.90;;
45392;SDS011;31129;44.810;10.334;2024-02-16T13:01:16;126.93;;;81.80;;
45392;SDS011;31129;44.810;10.334;2024-02-16T13:03:43;125.40;;;83.72;;
45392;SDS011;31129;44.810;10.334;2024-02-16T13:06:09;121.57;;;81.13;;
45392;SDS011;31129;44.810;10.334;2024-02-16T13:08:35;122.22;;;80.45;;
45392;SDS011;31129;44.810;10.334;2024-02-16T13:11:02;124.65;;;82.72;;
45392;SDS011;31129;44.810;10.334;2024-02-16T13:13:28;127.07;;;83.90;;
45392;SDS011;31129;44.810;10.334;2024-02-16T13:15:54;108.05;;;70.13;;
45392;SDS011;31129;44.810;10.334;2024-02-16T13:18:21;124.45;;;82.00;;
45392;SDS011;31129;44.810;10.334;2024-02-16T13:20:46;116.20;;;77.20;;
45392;SDS011;31129;44.810;10.334;2024-02-16T13:23:12;121.80;;;80.00;;
45392;SDS011;31129;44.810;10.334;2024-02-16T13:25:38;123.47;;;79.22;;
45392;SDS011;31129;44.810;10.334;2024-02-16T13:28:03;123.68;;;79.70;;
45392;SDS011;31129;44.810;10.334;2024-02-16T13:30:30;114.95;;;78.68;;
45392;SDS011;31129;44.810;10.334;2024-02-16T13:32:55;119.72;;;80.03;;
45392;SDS011;31129;44.810;10.334;2024-02-16T13:35:22;107.68;;;74.00;;
45392;SDS011;31129;44.810;10.334;2024-02-16T13:37:48;113.25;;;74.97;;
45392;SDS011;31129;44.810;10.334;2024-02-16T13:40:14;112.40;;;75.30;;
45392;SDS011;31129;44.810;10.334;2024-02-16T13:42:40;114.20;;;74.82;;
45392;SDS011;31129;44.810;10.334;2024-02-16T13:45:06;113.20;;;73.72;;
45392;SDS011;31129;44.810;10.334;2024-02-16T13:47:32;116.00;;;72.68;;
45392;SDS011;31129;44.810;10.334;2024-02-16T13:49:58;111.15;;;71.03;;
45392;SDS011;31129;44.810;10.334;2024-02-16T13:52:25;107.95;;;72.20;;
45392;SDS011;31129;44.810;10.334;2024-02-16T13:54:51;108.95;;;72.85;;
45392;SDS011;31129;44.810;10.334;2024-02-16T13:57:17;116.28;;;74.95;;
45392;SDS011;31129;44.810;10.334;2024-02-16T13:59:43;117.95;;;78.65;;
45392;SDS011;31129;44.810;10.334;2024-02-16T14:02:09;117.28;;;80.95;;
45392;SDS011;31129;44.810;10.334;2024-02-16T14:04:35;117.10;;;78.10;;
45392;SDS011;31129;44.810;10.334;2024-02-16T14:07:01;118.05;;;77.35;;
45392;SDS011;31129;44.810;10.334;2024-02-16T14:09:27;116.82;;;78.50;;